Merck (PN44)
Upper Gwynedd, PA
Field Elevation: 355
Lat: 40°12.97N  Long: 75°16.80W
   
    
Weather Advisories
2020-01-20   12:43 Z
Altimeter 30.23" Hg
Wind 340° @ 7 KT
Gusts 19 KT
Visibility 10 SM
Ceiling --
Temperature -6° C (21° F)
Dewpoint -13° C (9° F)
Relative Humidity 57%
Density Altitude --
Condensation Altitude 4,000 feet
Wind Chill: -11° C (12° F)
Wind and Runways
Indicated Runway = 27
Headwind = 2 kt
Crosswind = 7 kt
History
 
 
 
More Info
All DigiWx sites map
NOAA Forecast
 
Airport IQ 5010
(8PS5) Hershey Medical
(8NJ1) Whitehouse
 
about DigiWx
 
FAA Disclaimer: The data displayed is for advisory purposes only and is not to be used for flight planning or operations. For official data, please call (not available) to hear the current automated AWOS voice message.
  METAR pn44 201243Z AUTO 34007G19KT VIS 10 SM M06/M13 A3023